Mamfe, Cameroon
Current Conditions -  °F | °C
As of 5:00 PM on Monday 24 Nov 2014 (Local Time) from FKKD Reporting Station
Thunderstorm Thunderstorm  
Wind Chill: 84°   Ceiling: 1300
Heat Index: 94°   Visibility: 6mi
Dew Point: 77°   Wind: 9mph
Humidity: 79%   Direction: 220°SW
Pressure: 29.77"   Gusts: NA
Location:  5.77°N, 9.29°E
Report Text: FKKD 241600Z 22008KT 9999 TS BKN013 SCT016CB 29/25 Q1008 NOSIG
Loading
Personal Weather Stations






























Interactive Weather Map New forecast layout! Learn more

10-Day Weather Forecast

Advertisements
Track Severe Weather on mobile